< < Back
Terminal Aerodrome Forecast


Current Version              Previous Versions:   1  2  3  4  5  6  7  8  9  

Terminal Aerodrome Forecast

913
FTUS44 KHUN 311120
TAFHSV
TAF
KHSV 311120Z 3112/0112 VRB03KT P6SM FEW080
     FM311700 33008KT P6SM SCT050
     FM010000 01005KT P6SM SKC=

Latest METAR

556
SAUS80 KWBC 312100 RRC
MTRHSV
METAR KHSV 312053Z 33007KT 10SM FEW055 36/19 A2990 RMK AO2 SLP117
T03560194 58020


USA.gov is the U.S. government's official web portal to all federal, state and local government web resources and services.